Time;durP1;ratioP1;P1;durP2;ratioP2;P2;SDS_P1;SDS_P2;PMS_P1;PMS_P2;Temp;Humidity;BMP_temperature;BMP_pressure;BME280_temperature;BME280_humidity;BME280_pressure;Samples;Min_cycle;Max_cycle;Signal;HPM_P1;HPM_P2
2023/12/03 00:01:37;;;;;;;0.98;0.98;;;;;;;16.59;51.99;93895.44;5071360;28;20285;-69
2023/12/03 00:04:02;;;;;;;0.40;0.40;;;;;;;16.67;52.04;93893.31;5071454;28;20182;-69
2023/12/03 00:06:28;;;;;;;0.47;0.47;;;;;;;16.63;52.12;93898.38;5071199;28;20253;-69
2023/12/03 00:08:53;;;;;;;0.60;0.60;;;;;;;16.60;52.22;93890.94;5071260;28;20178;-69
2023/12/03 00:11:19;;;;;;;0.60;0.60;;;;;;;16.59;52.37;93897.31;5071203;28;20174;-69
2023/12/03 00:13:44;;;;;;;0.40;0.40;;;;;;;16.63;52.04;93914.31;5071018;28;20174;-69
2023/12/03 00:16:10;;;;;;;0.50;0.50;;;;;;;16.60;51.93;93909.53;5070870;28;20540;-69
2023/12/03 00:18:35;;;;;;;0.45;0.45;;;;;;;16.62;51.99;93915.38;5071313;28;20224;-69
2023/12/03 00:21:01;;;;;;;0.45;0.45;;;;;;;16.64;51.92;93912.44;5070938;28;20167;-69
2023/12/03 00:23:26;;;;;;;0.43;0.43;;;;;;;16.69;51.73;93918.53;5070921;28;20178;-69
2023/12/03 00:25:52;;;;;;;0.45;0.45;;;;;;;16.70;51.58;93919.34;5070788;28;20248;-69
2023/12/03 00:28:17;;;;;;;0.60;0.60;;;;;;;16.69;51.57;93917.78;5070737;28;20553;-69
2023/12/03 00:30:43;;;;;;;0.40;0.40;;;;;;;16.67;51.95;93923.34;5070998;28;20186;-69
2023/12/03 00:33:08;;;;;;;0.52;0.52;;;;;;;16.65;51.95;93917.50;5071151;28;20245;-69
2023/12/03 00:35:34;;;;;;;0.50;0.50;;;;;;;16.67;51.58;93923.34;5071072;28;20182;-70
2023/12/03 00:37:59;;;;;;;0.40;0.40;;;;;;;16.69;51.98;93918.53;5070789;28;20190;-69
2023/12/03 00:40:25;;;;;;;0.30;0.30;;;;;;;16.70;51.61;93920.13;5070673;28;20631;-69
2023/12/03 00:42:54;;;;;;;0.40;0.40;;;;;;;16.73;51.59;93926.78;5070632;28;20182;-69
2023/12/03 00:45:21;;;;;;;0.40;0.40;;;;;;;16.73;51.79;93937.41;5070537;28;20206;-69
2023/12/03 00:47:46;;;;;;;0.40;0.40;;;;;;;16.78;51.84;93937.38;5070415;28;20572;-69
2023/12/03 00:50:12;;;;;;;3.40;0.77;;;;;;;16.76;51.64;93945.66;5070677;28;20183;-69
2023/12/03 00:52:37;;;;;;;0.40;0.40;;;;;;;16.79;51.65;93953.06;5070641;28;20170;-69
2023/12/03 00:55:03;;;;;;;0.45;0.45;;;;;;;16.77;51.86;93949.91;5070413;28;20174;-69
2023/12/03 00:57:30;;;;;;;0.60;0.60;;;;;;;16.79;51.42;93931.00;5070040;28;20196;-70
2023/12/03 00:59:56;;;;;;;0.40;0.40;;;;;;;16.74;51.80;93929.16;5070305;28;20190;-69
2023/12/03 01:02:22;;;;;;;0.50;0.50;;;;;;;16.68;51.55;93938.22;5070144;28;20254;-69
2023/12/03 01:04:47;;;;;;;0.50;0.50;;;;;;;16.75;52.27;93954.69;5070005;28;20221;-70
2023/12/03 01:07:13;;;;;;;0.50;0.50;;;;;;;16.73;52.70;93959.47;5062782;28;20209;-69
2023/12/03 01:09:38;;;;;;;0.40;0.40;;;;;;;16.76;52.44;93952.81;5050480;28;20171;-69
2023/12/03 01:12:04;;;;;;;0.30;0.30;;;;;;;16.81;52.26;93960.78;5050425;28;20179;-70
2023/12/03 01:14:29;;;;;;;0.40;0.40;;;;;;;16.84;52.45;93954.91;5050285;28;20731;-70
2023/12/03 01:16:55;;;;;;;0.50;0.50;;;;;;;16.86;52.18;93948.28;5050137;28;20228;-70
2023/12/03 01:19:21;;;;;;;7.97;1.75;;;;;;;16.83;52.07;93958.63;5050352;28;20236;-70
2023/12/03 01:21:46;;;;;;;0.43;0.43;;;;;;;16.86;52.09;93958.91;5050242;28;20194;-69
2023/12/03 01:24:11;;;;;;;0.47;0.47;;;;;;;16.83;52.53;93962.09;5050069;28;20241;-69
2023/12/03 01:26:37;;;;;;;0.52;0.52;;;;;;;16.92;52.16;93957.81;5049981;28;20213;-69
2023/12/03 01:29:03;;;;;;;7.43;1.42;;;;;;;16.83;51.91;93950.66;5049789;28;20186;-69
2023/12/03 01:31:29;;;;;;;9.88;1.25;;;;;;;16.97;52.07;93968.41;5050298;28;20175;-69
2023/12/03 01:33:54;;;;;;;1.30;0.98;;;;;;;16.99;51.94;93965.50;5050254;28;20190;-69
2023/12/03 01:36:20;;;;;;;0.50;0.50;;;;;;;16.98;52.41;93956.72;5048823;28;20175;-69
2023/12/03 01:38:45;;;;;;;0.50;0.50;;;;;;;16.98;52.14;93958.56;5049958;28;20253;-69
2023/12/03 01:41:11;;;;;;;10.38;1.50;;;;;;;16.91;52.30;93966.84;5049843;28;20180;-69
2023/12/03 01:43:53;;;;;;;0.40;0.40;;;;;;;16.97;52.47;93967.63;5050057;28;20179;-70
2023/12/03 01:46:20;;;;;;;0.40;0.40;;;;;;;16.92;52.39;93967.66;5049865;28;20205;-69
2023/12/03 01:48:47;;;;;;;0.40;0.40;;;;;;;16.90;52.75;93948.50;5050157;28;20281;-69
2023/12/03 01:51:14;;;;;;;0.50;0.50;;;;;;;16.91;52.89;93958.06;5049899;28;20199;-69
2023/12/03 01:53:42;;;;;;;0.40;0.40;;;;;;;16.91;52.92;93961.53;5059567;28;20246;-69
2023/12/03 01:56:09;;;;;;;0.30;0.30;;;;;;;16.96;52.84;93963.38;5069818;28;20182;-69
2023/12/03 01:58:34;;;;;;;0.50;0.50;;;;;;;16.83;52.96;93943.50;5069529;28;20179;-69
2023/12/03 02:01:00;;;;;;;0.40;0.40;;;;;;;17.00;52.86;93960.97;5070090;28;20186;-69
2023/12/03 02:03:26;;;;;;;6.45;5.97;;;;;;;16.92;53.02;93963.13;5069677;28;20166;-69
2023/12/03 02:06:09;;;;;;;0.50;0.50;;;;;;;16.92;53.08;93951.69;5069544;28;20217;-69
2023/12/03 02:08:35;;;;;;;0.43;0.43;;;;;;;16.90;53.48;93957.28;5069673;28;20170;-69
2023/12/03 02:11:03;;;;;;;0.40;0.40;;;;;;;16.90;53.32;93954.63;5069559;28;20174;-68
2023/12/03 02:13:31;;;;;;;0.68;0.68;;;;;;;16.90;52.98;93938.66;5069479;28;20257;-68
2023/12/03 02:15:57;;;;;;;0.30;0.30;;;;;;;16.96;52.99;93939.44;5069348;28;20177;-69
2023/12/03 02:18:23;;;;;;;0.50;0.50;;;;;;;16.78;53.02;93921.44;5069277;28;20639;-69
2023/12/03 02:20:48;;;;;;;0.73;0.47;;;;;;;16.87;53.35;93941.88;5069355;28;20628;-69
2023/12/03 02:23:14;;;;;;;0.40;0.40;;;;;;;16.82;53.52;93936.59;5068975;28;20178;-69
2023/12/03 02:25:41;;;;;;;0.60;0.60;;;;;;;16.84;53.68;93931.78;5069096;28;20323;-69
2023/12/03 02:28:07;;;;;;;0.40;0.40;;;;;;;16.85;53.58;93943.22;5069034;28;20633;-69
2023/12/03 02:30:32;;;;;;;1.48;1.15;;;;;;;16.83;53.67;93948.81;5069286;28;20217;-69
2023/12/03 02:32:58;;;;;;;0.57;0.57;;;;;;;16.77;53.85;93941.94;5069495;28;20174;-69
2023/12/03 02:35:23;;;;;;;0.50;0.50;;;;;;;16.79;53.68;93947.75;5069430;28;20209;-69
2023/12/03 02:37:49;;;;;;;0.75;0.75;;;;;;;16.78;53.50;93940.84;5069118;28;20178;-69
2023/12/03 02:40:14;;;;;;;0.90;0.90;;;;;;;16.84;53.93;93945.09;5071281;28;20284;-70
2023/12/03 02:42:40;;;;;;;0.80;0.80;;;;;;;16.84;53.79;93946.94;5073133;28;20185;-70
2023/12/03 02:45:07;;;;;;;6.70;1.67;;;;;;;16.84;53.67;93945.09;5073378;28;20189;-70
2023/12/03 02:47:33;;;;;;;0.52;0.52;;;;;;;16.81;53.83;93950.94;5072988;28;20272;-70
2023/12/03 02:49:58;;;;;;;0.50;0.50;;;;;;;16.81;53.69;93958.91;5073150;28;20186;-69
2023/12/03 02:52:24;;;;;;;0.50;0.50;;;;;;;16.77;54.11;93957.06;5072882;28;20257;-69
2023/12/03 02:54:49;;;;;;;0.70;0.70;;;;;;;16.82;54.20;93962.38;5072901;28;20182;-69
2023/12/03 02:57:15;;;;;;;0.30;0.30;;;;;;;16.84;53.95;93960.25;5072759;28;20171;-69
2023/12/03 02:59:40;;;;;;;4.20;1.17;;;;;;;16.82;54.05;93973.00;5072294;28;20197;-69
2023/12/03 03:02:06;;;;;;;0.40;0.40;;;;;;;16.77;54.21;93963.19;5072770;28;20197;-69
2023/12/03 03:04:31;;;;;;;0.95;0.95;;;;;;;16.64;54.06;93950.47;5072673;28;20262;-69
2023/12/03 03:06:57;;;;;;;3.38;3.08;;;;;;;16.73;54.40;93967.44;5072714;28;20206;-69
2023/12/03 03:09:22;;;;;;;0.43;0.43;;;;;;;16.74;54.75;93968.25;5072840;28;20174;-69
2023/12/03 03:11:47;;;;;;;14.10;4.45;;;;;;;16.77;54.50;93973.03;5072733;28;20201;-69
2023/12/03 03:14:13;;;;;;;0.70;0.70;;;;;;;16.76;54.68;93980.19;5072395;28;20178;-69
2023/12/03 03:16:38;;;;;;;0.50;0.50;;;;;;;16.76;54.53;93966.91;5072260;28;20178;-69
2023/12/03 03:19:05;;;;;;;0.40;0.40;;;;;;;16.77;54.67;93968.50;5072219;28;20551;-69
2023/12/03 03:21:31;;;;;;;0.40;0.40;;;;;;;16.68;54.47;93980.75;5072501;28;20701;-69
2023/12/03 03:23:56;;;;;;;0.40;0.40;;;;;;;16.69;54.91;93984.97;5072566;28;20178;-69
2023/12/03 03:26:21;;;;;;;0.38;0.38;;;;;;;16.72;54.89;93973.81;5072245;28;20644;-69
2023/12/03 03:28:47;;;;;;;1.15;1.15;;;;;;;16.64;54.89;93976.22;5072307;28;20622;-69
2023/12/03 03:31:12;;;;;;;5.47;3.00;;;;;;;16.73;55.05;93998.53;5072488;28;20182;-69
2023/12/03 03:33:38;;;;;;;0.43;0.43;;;;;;;16.74;54.95;94000.13;5072201;28;20178;-69
2023/12/03 03:36:04;;;;;;;0.50;0.50;;;;;;;16.76;54.87;94001.47;5071955;28;20174;-70
2023/12/03 03:38:29;;;;;;;2.90;2.70;;;;;;;16.54;55.20;93992.97;5071782;28;20190;-69
2023/12/03 03:40:55;;;;;;;0.60;0.60;;;;;;;16.72;55.08;94015.53;5072002;28;20265;-69
2023/12/03 03:43:20;;;;;;;0.70;0.70;;;;;;;16.62;55.60;94023.53;5071981;28;20186;-69
2023/12/03 03:45:46;;;;;;;0.30;0.30;;;;;;;16.56;55.76;94028.84;5072090;28;20179;-69
2023/12/03 03:48:11;;;;;;;0.40;0.40;;;;;;;16.54;56.13;94030.16;5072271;28;20178;-69
2023/12/03 03:50:36;;;;;;;0.90;0.90;;;;;;;16.55;56.49;94031.75;5071615;28;20264;-69
2023/12/03 03:53:02;;;;;;;0.50;0.50;;;;;;;16.48;56.17;94041.88;5072207;28;20542;-69
2023/12/03 03:55:27;;;;;;;0.50;0.50;;;;;;;16.40;56.46;94045.06;5072411;28;20209;-69
2023/12/03 03:57:53;;;;;;;0.40;0.40;;;;;;;16.23;56.62;94056.75;5072075;28;20170;-69
2023/12/03 04:00:18;;;;;;;0.40;0.40;;;;;;;16.13;57.04;94059.41;5072223;28;20178;-69
2023/12/03 04:02:44;;;;;;;0.40;0.40;;;;;;;16.05;57.36;94049.31;5057846;28;20213;-69
2023/12/03 04:05:09;;;;;;;0.45;0.45;;;;;;;15.98;57.52;94056.72;5051747;28;20283;-69
2023/12/03 04:07:35;;;;;;;0.40;0.40;;;;;;;15.93;57.67;94059.34;5051978;28;20210;-69
2023/12/03 04:10:00;;;;;;;0.40;0.40;;;;;;;15.87;57.81;94057.78;5052017;28;20186;-68
2023/12/03 04:12:26;;;;;;;0.50;0.50;;;;;;;15.85;57.79;94065.19;5051871;28;20171;-69
2023/12/03 04:14:51;;;;;;;0.90;0.90;;;;;;;15.80;57.82;94071.28;5051608;28;20183;-69
2023/12/03 04:17:17;;;;;;;0.85;0.85;;;;;;;15.80;58.22;94073.16;5051661;28;20300;-69
2023/12/03 04:19:42;;;;;;;0.52;0.52;;;;;;;15.77;58.38;94082.44;5051792;28;20591;-69
2023/12/03 04:22:08;;;;;;;0.40;0.40;;;;;;;15.71;58.62;94080.03;5051441;28;20171;-69
2023/12/03 04:24:33;;;;;;;0.40;0.40;;;;;;;15.41;59.30;94062.91;5058770;28;20556;-69
2023/12/03 04:26:59;;;;;;;0.50;0.50;;;;;;;15.49;59.93;94088.94;5071413;28;20206;-69
2023/12/03 04:29:24;;;;;;;0.50;0.50;;;;;;;15.46;60.02;94100.09;5071400;28;20197;-67
2023/12/03 04:31:50;;;;;;;0.57;0.57;;;;;;;15.43;60.39;94111.19;5071161;28;20186;-66
2023/12/03 04:34:15;;;;;;;0.80;0.80;;;;;;;15.42;60.67;94111.44;5071229;28;20181;-68
2023/12/03 04:36:44;;;;;;;0.40;0.40;;;;;;;15.35;61.29;94116.19;5071099;28;20636;-68
2023/12/03 04:39:09;;;;;;;0.47;0.47;;;;;;;15.27;62.33;94133.41;5071203;28;20265;-68
2023/12/03 04:41:36;;;;;;;0.87;0.87;;;;;;;15.24;63.45;94131.25;5070757;28;20727;-68
2023/12/03 04:44:02;;;;;;;0.50;0.50;;;;;;;15.11;63.53;94129.06;5070833;28;20174;-69
2023/12/03 04:46:28;;;;;;;0.40;0.40;;;;;;;14.96;63.95;94126.34;5070812;28;20194;-69
2023/12/03 04:48:53;;;;;;;1.40;1.40;;;;;;;15.02;64.68;94152.63;5070799;28;20240;-70
2023/12/03 04:51:19;;;;;;;0.50;0.50;;;;;;;14.82;65.96;94139.22;5061798;28;20236;-70
2023/12/03 04:53:44;;;;;;;0.60;0.60;;;;;;;14.82;66.81;94162.25;5050852;28;20228;-69
2023/12/03 04:56:10;;;;;;;0.60;0.60;;;;;;;14.60;67.42;94165.03;5050720;28;20171;-70
2023/12/03 04:58:36;;;;;;;7.03;1.20;;;;;;;14.54;66.30;94173.94;5050662;28;20249;-69
2023/12/03 05:01:02;;;;;;;0.43;0.43;;;;;;;14.42;67.24;94179.44;5050924;28;20186;-69
2023/12/03 05:03:27;;;;;;;0.40;0.40;;;;;;;14.36;68.11;94188.31;5049997;28;20191;-70
2023/12/03 05:05:53;;;;;;;0.40;0.40;;;;;;;14.32;69.27;94190.69;5048133;28;20241;-69
2023/12/03 05:08:18;;;;;;;0.50;0.50;;;;;;;14.33;70.32;94197.59;5050709;28;20703;-69
2023/12/03 05:10:44;;;;;;;0.50;0.50;;;;;;;14.33;71.40;94191.50;5050586;28;20179;-69
2023/12/03 05:13:09;;;;;;;0.73;0.73;;;;;;;14.41;71.58;94214.91;5050779;28;20236;-69
2023/12/03 05:15:35;;;;;;;0.40;0.40;;;;;;;14.38;71.98;94209.25;5050585;28;20210;-69
2023/12/03 05:18:00;;;;;;;0.67;0.67;;;;;;;14.28;73.06;94202.81;5050609;28;20696;-69
2023/12/03 05:20:26;;;;;;;0.40;0.40;;;;;;;14.24;73.57;94207.03;5050457;28;20178;-69
2023/12/03 05:22:53;;;;;;;0.53;0.53;;;;;;;14.25;74.08;94205.97;5050432;28;20175;-69
2023/12/03 05:25:19;;;;;;;0.63;0.63;;;;;;;14.26;74.14;94191.69;5050456;28;20213;-69
2023/12/03 05:27:45;;;;;;;0.47;0.47;;;;;;;14.15;74.47;94168.00;5050404;28;20251;-69
2023/12/03 05:30:13;;;;;;;0.43;0.43;;;;;;;14.30;74.20;94205.22;5050599;28;20620;-69
2023/12/03 05:32:40;;;;;;;0.50;0.50;;;;;;;14.21;74.52;94204.06;5050411;28;20179;-68
2023/12/03 05:35:05;;;;;;;0.43;0.43;;;;;;;14.05;75.64;94212.88;5050376;28;20266;-68
2023/12/03 05:37:31;;;;;;;0.60;0.60;;;;;;;13.98;75.98;94210.44;5049899;28;20747;-68
2023/12/03 05:39:56;;;;;;;0.40;0.40;;;;;;;14.00;76.02;94207.56;5050413;28;20563;-68
2023/12/03 05:42:22;;;;;;;0.50;0.50;;;;;;;13.99;75.80;94212.03;5049995;28;20269;-68
2023/12/03 05:44:48;;;;;;;25.67;23.57;;;;;;;14.01;76.19;94204.63;5049820;28;20178;-68
2023/12/03 05:47:13;;;;;;;0.97;0.97;;;;;;;14.04;76.05;94203.34;5049491;28;20268;-68
2023/12/03 05:49:39;;;;;;;0.40;0.40;;;;;;;14.08;75.61;94215.84;5060009;28;20318;-68
2023/12/03 05:52:05;;;;;;;0.50;0.50;;;;;;;14.07;75.10;94218.75;5069663;28;20178;-69
2023/12/03 05:54:30;;;;;;;0.50;0.50;;;;;;;14.10;74.85;94223.53;5058071;28;20590;-69
2023/12/03 05:56:55;;;;;;;0.50;0.50;;;;;;;14.13;74.87;94234.44;5050072;28;20167;-69
2023/12/03 05:59:22;;;;;;;0.47;0.47;;;;;;;14.16;74.80;94235.78;5050396;28;20594;-69
2023/12/03 06:01:48;;;;;;;0.40;0.40;;;;;;;14.21;74.74;94233.97;5050259;28;20281;-69
2023/12/03 06:04:14;;;;;;;0.40;0.40;;;;;;;14.27;74.66;94240.91;5049758;28;20253;-69
2023/12/03 06:06:41;;;;;;;0.50;0.50;;;;;;;14.25;74.63;94256.28;5048920;28;20218;-69
2023/12/03 06:09:09;;;;;;;0.40;0.40;;;;;;;14.30;74.49;94260.81;5049435;28;20194;-69
2023/12/03 06:11:35;;;;;;;0.50;0.50;;;;;;;14.31;74.34;94267.72;5049694;28;20623;-68
2023/12/03 06:14:01;;;;;;;1.07;1.07;;;;;;;14.34;74.18;94268.03;5049235;28;20177;-68
2023/12/03 06:16:27;;;;;;;0.40;0.40;;;;;;;14.36;73.81;94271.22;5049591;28;20246;-68
2023/12/03 06:18:52;;;;;;;0.80;0.80;;;;;;;14.35;74.13;94271.47;5049479;28;20282;-68
2023/12/03 06:21:18;;;;;;;0.40;0.40;;;;;;;14.32;74.34;94270.13;5049493;28;20183;-68
2023/12/03 06:23:43;;;;;;;1.43;1.43;;;;;;;14.30;73.48;94287.28;5049529;28;20178;-69
2023/12/03 06:26:09;;;;;;;0.50;0.50;;;;;;;14.31;73.45;94288.91;5049489;28;20234;-69
2023/12/03 06:28:34;;;;;;;0.50;0.50;;;;;;;14.31;73.51;94283.59;5047311;28;20575;-68
2023/12/03 06:31:00;;;;;;;0.50;0.50;;;;;;;14.39;74.45;94285.84;5049488;28;20186;-69
2023/12/03 06:33:26;;;;;;;0.40;0.40;;;;;;;14.41;75.81;94296.19;5049733;28;20189;-69
2023/12/03 06:35:53;;;;;;;0.50;0.50;;;;;;;14.52;76.05;94289.97;5049458;28;20258;-68
2023/12/03 06:38:18;;;;;;;5.47;4.93;;;;;;;14.54;76.38;94298.44;5049471;28;20636;-68
2023/12/03 06:40:45;;;;;;;0.47;0.47;;;;;;;14.48;76.86;94304.75;5049383;28;20209;-68
2023/12/03 06:43:10;;;;;;;0.50;0.50;;;;;;;14.47;76.82;94305.78;5048983;28;20182;-69
2023/12/03 06:45:37;;;;;;;0.50;0.50;;;;;;;14.29;77.37;94285.69;5048966;28;20225;-69
2023/12/03 06:48:03;;;;;;;0.30;0.30;;;;;;;14.45;76.85;94318.47;5048856;28;20190;-68
2023/12/03 06:50:28;;;;;;;1.07;1.07;;;;;;;14.32;77.07;94327.56;5048851;28;20179;-68
2023/12/03 06:52:54;;;;;;;0.50;0.50;;;;;;;14.16;78.16;94313.34;5049085;28;20179;-67
2023/12/03 06:55:19;;;;;;;0.40;0.40;;;;;;;14.28;78.48;94329.91;5049021;28;20733;-67
2023/12/03 06:57:45;;;;;;;0.50;0.50;;;;;;;14.26;79.40;94333.84;5049107;28;20523;-68
2023/12/03 07:00:11;;;;;;;0.87;0.87;;;;;;;14.25;81.00;94334.91;5048796;28;20270;-68
2023/12/03 07:02:36;;;;;;;0.40;0.40;;;;;;;14.26;82.24;94333.84;5068138;28;20193;-68
2023/12/03 07:05:02;;;;;;;0.70;0.70;;;;;;;14.31;82.65;94337.34;5059866;28;20724;-68
2023/12/03 07:07:29;;;;;;;0.90;0.90;;;;;;;14.29;82.62;94344.75;5048335;28;20223;-68
2023/12/03 07:09:55;;;;;;;0.40;0.40;;;;;;;14.27;83.23;94348.69;5048351;28;20175;-67
2023/12/03 07:12:20;;;;;;;1.13;1.13;;;;;;;14.23;83.33;94356.31;5048911;28;20266;-67
2023/12/03 07:14:45;;;;;;;0.80;0.80;;;;;;;14.18;83.81;94358.13;5048204;28;20198;-68
2023/12/03 07:17:11;;;;;;;1.40;1.40;;;;;;;14.18;84.33;94366.81;5048216;28;20179;-68
2023/12/03 07:19:36;;;;;;;0.70;0.70;;;;;;;14.19;84.99;94368.44;5048746;28;20782;-68
2023/12/03 07:22:02;;;;;;;1.17;1.17;;;;;;;14.20;85.12;94366.59;5047962;28;20190;-68
2023/12/03 07:24:27;;;;;;;3.03;1.87;;;;;;;14.03;86.15;94373.75;5048168;28;20245;-68
2023/12/03 07:26:53;;;;;;;0.57;0.57;;;;;;;14.01;86.81;94370.59;5050306;28;20234;-68
2023/12/03 07:29:18;;;;;;;0.70;0.70;;;;;;;14.12;87.66;94377.59;5052658;28;20187;-68
2023/12/03 07:31:44;;;;;;;2.70;2.50;;;;;;;14.10;88.17;94374.38;5052198;28;20988;-68
2023/12/03 07:34:09;;;;;;;0.50;0.50;;;;;;;14.16;88.60;94390.13;5051821;28;20596;-68
2023/12/03 07:36:35;;;;;;;2.57;2.40;;;;;;;14.16;88.13;94389.31;5052337;28;20597;-68
2023/12/03 07:39:01;;;;;;;0.57;0.57;;;;;;;14.19;87.84;94391.47;5051463;28;20175;-68
2023/12/03 07:41:26;;;;;;;1.10;1.10;;;;;;;14.18;86.70;94401.25;5051082;28;20209;-68
2023/12/03 07:43:51;;;;;;;0.70;0.70;;;;;;;14.16;86.27;94403.34;5051106;28;20671;-69
2023/12/03 07:46:18;;;;;;;0.90;0.90;;;;;;;14.16;86.39;94413.13;5050784;28;20194;-69
2023/12/03 07:48:44;;;;;;;0.60;0.60;;;;;;;13.99;87.09;94413.16;5050820;28;20179;-69
2023/12/03 07:51:10;;;;;;;0.80;0.80;;;;;;;13.86;86.29;94432.81;5050632;28;20191;-69
2023/12/03 07:53:36;;;;;;;0.63;0.63;;;;;;;13.67;86.16;94418.22;5050952;28;20178;-69
2023/12/03 07:56:01;;;;;;;1.03;1.03;;;;;;;13.68;86.09;94442.81;5051333;28;20168;-69
2023/12/03 07:58:27;;;;;;;1.03;1.03;;;;;;;13.57;86.06;94442.69;5051289;28;20214;-68
2023/12/03 08:00:53;;;;;;;0.70;0.70;;;;;;;13.41;85.42;94454.00;5050488;28;20199;-69
2023/12/03 08:03:18;;;;;;;0.87;0.87;;;;;;;13.30;85.75;94460.19;5050499;28;20183;-69
2023/12/03 08:05:44;;;;;;;1.07;1.03;;;;;;;13.30;85.42;94459.38;5050315;28;20922;-68
2023/12/03 08:08:09;;;;;;;0.50;0.50;;;;;;;13.10;85.72;94475.63;5050750;28;20676;-68
2023/12/03 08:10:35;;;;;;;0.70;0.70;;;;;;;12.96;85.69;94479.59;5050439;28;20194;-68
2023/12/03 08:13:00;;;;;;;0.40;0.40;;;;;;;12.83;85.67;94494.66;5050905;28;20198;-69
2023/12/03 08:15:26;;;;;;;0.70;0.70;;;;;;;12.70;86.35;94500.19;5051311;28;20233;-70
2023/12/03 08:17:54;;;;;;;0.63;0.63;;;;;;;12.62;86.32;94505.03;5051086;28;20548;-69
2023/12/03 08:20:19;;;;;;;0.40;0.40;;;;;;;12.51;85.77;94506.66;5049725;28;20233;-69
2023/12/03 08:22:45;;;;;;;0.83;0.83;;;;;;;12.35;85.17;94526.63;5051455;28;20729;-69
2023/12/03 08:25:11;;;;;;;0.87;0.87;;;;;;;12.08;85.69;94528.91;5051239;28;20179;-68
2023/12/03 08:27:36;;;;;;;0.70;0.70;;;;;;;11.86;86.18;94529.66;5050996;28;20244;-68
2023/12/03 08:30:02;;;;;;;0.47;0.47;;;;;;;11.63;86.60;94507.47;5051259;28;20186;-69
2023/12/03 08:32:28;;;;;;;1.07;1.07;;;;;;;11.75;86.27;94533.09;5051116;28;20257;-68
2023/12/03 08:34:53;;;;;;;0.60;0.60;;;;;;;11.59;85.68;94529.22;5051051;28;20648;-68
2023/12/03 08:37:19;;;;;;;0.67;0.67;;;;;;;11.55;85.76;94526.22;5050928;28;20272;-68
2023/12/03 08:39:44;;;;;;;1.40;1.10;;;;;;;11.49;85.79;94521.88;5051250;28;20179;-68
2023/12/03 08:42:09;;;;;;;2.47;1.50;;;;;;;11.43;84.89;94520.09;5050825;28;20680;-67
2023/12/03 08:44:35;;;;;;;1.37;1.27;;;;;;;11.23;84.10;94527.50;5050780;28;20231;-68
2023/12/03 08:47:00;;;;;;;0.97;0.97;;;;;;;11.06;84.37;94537.03;5050727;28;20217;-68
2023/12/03 08:49:26;;;;;;;1.00;0.97;;;;;;;10.64;84.06;94541.38;5050474;28;20249;-69
2023/12/03 08:51:52;;;;;;;0.80;0.80;;;;;;;10.43;85.27;94532.06;5050694;28;20534;-68
2023/12/03 08:54:17;;;;;;;0.40;0.40;;;;;;;10.46;86.15;94532.44;5050612;28;20175;-69
2023/12/03 08:56:43;;;;;;;0.87;0.87;;;;;;;10.39;85.87;94536.13;5050572;28;20179;-68
2023/12/03 08:59:09;;;;;;;0.60;0.60;;;;;;;10.40;86.15;94529.84;5050297;28;20325;-69
2023/12/03 09:01:34;;;;;;;2.80;1.57;;;;;;;10.33;86.73;94518.59;5053829;28;20229;-68
2023/12/03 09:04:00;;;;;;;0.50;0.50;;;;;;;10.53;86.19;94535.78;5056239;28;20174;-68
2023/12/03 09:06:25;;;;;;;5.60;3.33;;;;;;;10.55;85.51;94527.69;5050552;28;20235;-68
2023/12/03 09:08:50;;;;;;;0.50;0.50;;;;;;;10.51;86.25;94539.66;5050619;28;20179;-69
2023/12/03 09:11:16;;;;;;;0.60;0.60;;;;;;;10.50;86.56;94536.22;5050290;28;20201;-68
2023/12/03 09:13:42;;;;;;;1.53;1.37;;;;;;;10.44;86.17;94531.03;5057723;28;20197;-68
2023/12/03 09:16:08;;;;;;;0.77;0.77;;;;;;;10.45;86.05;94548.44;5068851;28;20309;-68
2023/12/03 09:18:38;;;;;;;0.50;0.50;;;;;;;10.41;85.18;94560.41;5056862;28;20262;-68
2023/12/03 09:21:06;;;;;;;0.50;0.50;;;;;;;10.28;85.00;94565.78;5049654;28;20163;-66
2023/12/03 09:23:33;;;;;;;0.60;0.60;;;;;;;10.14;85.89;94555.34;5068338;28;20186;-66
2023/12/03 09:26:00;;;;;;;0.70;0.70;;;;;;;10.21;87.03;94577.16;5069776;28;20182;-67
2023/12/03 09:28:25;;;;;;;1.63;1.63;;;;;;;10.29;86.33;94583.19;5068596;28;20178;-69
2023/12/03 09:30:51;;;;;;;0.30;0.30;;;;;;;10.30;86.01;94579.50;5069946;28;20560;-68
2023/12/03 09:33:17;;;;;;;0.80;0.80;;;;;;;10.16;85.95;94558.56;5069549;28;20651;-69
2023/12/03 09:35:42;;;;;;;1.23;1.23;;;;;;;10.37;85.63;94590.81;5069920;28;20189;-68
2023/12/03 09:38:08;;;;;;;1.63;1.53;;;;;;;10.27;85.41;94583.41;5069537;28;20182;-69
2023/12/03 09:40:34;;;;;;;1.17;1.17;;;;;;;10.18;84.74;94585.50;5069904;28;20178;-67
2023/12/03 09:43:04;;;;;;;0.70;0.70;;;;;;;10.06;85.66;94586.34;5059077;28;20477;-69
2023/12/03 09:45:31;;;;;;;0.80;0.80;;;;;;;9.97;85.46;94577.94;5049357;28;20268;-67
2023/12/03 09:48:01;;;;;;;0.50;0.50;;;;;;;9.84;85.11;94572.78;5048527;28;20210;-67
2023/12/03 09:50:33;;;;;;;2.07;1.97;;;;;;;9.69;86.22;94598.53;5048765;28;20681;-67
2023/12/03 09:53:01;;;;;;;1.10;1.10;;;;;;;9.68;85.99;94597.75;5048482;28;20178;-68
2023/12/03 09:55:27;;;;;;;0.97;0.97;;;;;;;9.71;85.46;94607.03;5049204;28;20179;-69
2023/12/03 09:57:57;;;;;;;3.13;2.87;;;;;;;9.72;85.05;94612.06;5049575;28;20663;-69
2023/12/03 10:00:23;;;;;;;0.97;0.97;;;;;;;9.73;85.19;94612.88;5049394;28;20167;-69
2023/12/03 10:02:53;;;;;;;1.13;1.13;;;;;;;9.74;83.93;94611.88;5049459;28;20174;-69
2023/12/03 10:05:19;;;;;;;0.50;0.50;;;;;;;9.68;83.77;94629.28;5048761;28;20218;-68
2023/12/03 10:07:47;;;;;;;0.70;0.70;;;;;;;9.62;83.87;94632.75;5049507;28;20554;-68
2023/12/03 10:10:15;;;;;;;0.60;0.60;;;;;;;9.57;82.68;94640.47;5049174;28;20242;-69
2023/12/03 10:12:43;;;;;;;0.50;0.50;;;;;;;9.50;82.67;94638.88;5049591;28;20178;-69
2023/12/03 10:15:12;;;;;;;1.13;1.13;;;;;;;9.48;82.79;94651.41;5058441;28;20195;-69
2023/12/03 10:23:41;;;;;;;5.20;2.10;;;;;;;8.93;82.40;94654.41;5011184;28;20664;-70
2023/12/03 10:26:14;;;;;;;1.23;1.23;;;;;;;8.83;83.26;94661.09;5048041;28;20195;-71
2023/12/03 10:28:40;;;;;;;1.80;1.53;;;;;;;8.75;83.07;94658.69;5047920;28;20182;-68
2023/12/03 10:31:15;;;;;;;10.53;2.37;;;;;;;8.79;83.10;94662.53;5048331;28;20183;-69
2023/12/03 10:33:44;;;;;;;0.40;0.40;;;;;;;8.86;82.65;94663.31;5049074;28;20187;-70
2023/12/03 10:36:11;;;;;;;0.83;0.83;;;;;;;8.85;82.28;94657.25;5049109;28;20171;-70
2023/12/03 10:38:38;;;;;;;1.67;1.63;;;;;;;8.86;81.95;94648.38;5049463;28;20202;-70
2023/12/03 10:41:08;;;;;;;0.80;0.80;;;;;;;8.81;81.84;94642.94;5049009;28;20183;-70
2023/12/03 10:43:35;;;;;;;0.93;0.93;;;;;;;8.83;81.91;94653.22;5048848;28;20583;-70
2023/12/03 10:46:08;;;;;;;2.00;1.90;;;;;;;8.74;81.74;94646.56;5048444;28;20179;-70
2023/12/03 10:48:34;;;;;;;2.73;2.30;;;;;;;8.72;82.07;94667.78;5049088;28;20183;-70
2023/12/03 10:51:08;;;;;;;0.83;0.83;;;;;;;8.77;81.97;94664.53;5049053;28;20175;-70
2023/12/03 10:53:34;;;;;;;4.43;1.47;;;;;;;8.54;82.05;94660.53;5048823;28;20183;-70
2023/12/03 10:56:06;;;;;;;2.37;2.00;;;;;;;8.70;82.13;94675.84;5049239;28;20203;-70
2023/12/03 10:58:41;;;;;;;0.70;0.70;;;;;;;8.62;82.66;94667.38;5048942;28;20205;-70
2023/12/03 11:01:17;;;;;;;1.70;1.00;;;;;;;8.61;81.65;94656.09;5050659;28;20228;-70
2023/12/03 11:04:03;;;;;;;2.20;2.10;;;;;;;8.63;80.93;94675.06;5072813;28;20182;-70
2023/12/03 11:06:32;;;;;;;0.50;0.50;;;;;;;8.43;81.60;94674.25;5072609;28;20226;-69
2023/12/03 11:08:58;;;;;;;0.57;0.57;;;;;;;8.39;82.77;94674.88;5053486;28;20652;-70
2023/12/03 11:11:24;;;;;;;0.90;0.90;;;;;;;8.39;82.57;94673.03;5051618;28;20248;-69
2023/12/03 11:13:52;;;;;;;0.90;0.90;;;;;;;8.46;82.61;94668.63;5052620;28;20250;-70
2023/12/03 11:16:18;;;;;;;1.03;0.97;;;;;;;8.53;81.88;94661.53;5052601;28;20175;-70
2023/12/03 11:19:11;;;;;;;1.63;1.13;;;;;;;8.57;82.08;94673.22;5052613;28;20183;-70
2023/12/03 11:22:05;;;;;;;0.60;0.60;;;;;;;8.48;82.58;94689.38;5051538;28;20171;-68
2023/12/03 11:24:48;;;;;;;1.23;1.17;;;;;;;8.61;82.25;94677.06;5052785;28;20191;-70
2023/12/03 11:27:14;;;;;;;2.40;2.20;;;;;;;8.58;80.95;94682.72;5052397;28;20231;-69
2023/12/03 11:29:49;;;;;;;0.87;0.87;;;;;;;8.53;80.55;94694.84;5052692;28;20240;-70
2023/12/03 11:32:16;;;;;;;1.83;1.77;;;;;;;8.49;80.35;94704.91;5052717;28;20236;-70
2023/12/03 11:34:43;;;;;;;1.33;1.33;;;;;;;8.45;81.11;94685.34;5052363;28;20258;-71
2023/12/03 11:37:09;;;;;;;1.70;1.60;;;;;;;8.53;80.78;94713.19;5052515;28;20703;-68